createdAt,value
2022-11-24T00:00:17.344Z,7.60
2022-11-24T00:00:49.212Z,7.60
2022-11-24T00:01:23.683Z,7.60
2022-11-24T00:01:56.522Z,7.60
2022-11-24T00:02:29.025Z,7.60
2022-11-24T00:03:01.085Z,7.60
2022-11-24T00:03:34.389Z,7.60
2022-11-24T00:04:06.848Z,7.60
2022-11-24T00:04:38.826Z,7.60
2022-11-24T00:05:11.574Z,7.60
2022-11-24T00:05:43.449Z,7.60
2022-11-24T00:06:16.120Z,7.60
2022-11-24T00:06:48.945Z,7.70
2022-11-24T00:07:20.828Z,7.70
2022-11-24T00:07:52.696Z,7.70
2022-11-24T00:08:24.566Z,7.70
2022-11-24T00:08:57.868Z,7.70
2022-11-24T00:09:30.055Z,7.70
2022-11-24T00:10:02.488Z,7.70
2022-11-24T00:10:35.361Z,7.70
2022-11-24T00:11:08.857Z,7.70
2022-11-24T00:11:41.572Z,7.70
2022-11-24T00:12:13.479Z,7.70
2022-11-24T00:12:45.287Z,7.70
2022-11-24T00:13:18.120Z,7.70
2022-11-24T00:13:50.426Z,7.70
2022-11-24T00:14:23.270Z,7.70
2022-11-24T00:14:55.067Z,7.70
2022-11-24T00:15:26.913Z,7.70
2022-11-24T00:16:06.700Z,7.70
2022-11-24T00:16:40.061Z,7.70
2022-11-24T00:17:13.051Z,7.70
2022-11-24T00:17:44.923Z,7.70
2022-11-24T00:18:16.721Z,7.70
2022-11-24T00:18:51.192Z,7.70
2022-11-24T00:19:23.003Z,7.70
2022-11-24T00:19:54.795Z,7.70
2022-11-24T00:20:27.735Z,7.70
2022-11-24T00:20:59.499Z,7.70
2022-11-24T00:21:32.396Z,7.70
2022-11-24T00:22:05.112Z,7.70
2022-11-24T00:22:36.900Z,7.70
2022-11-24T00:23:08.647Z,7.70
2022-11-24T00:23:40.877Z,7.70
2022-11-24T00:24:13.733Z,7.70
2022-11-24T00:24:45.512Z,7.70
2022-11-24T00:25:17.397Z,7.70
2022-11-24T00:25:50.117Z,7.70
2022-11-24T00:26:23.387Z,7.70
2022-11-24T00:26:56.156Z,7.60
2022-11-24T00:27:27.949Z,7.60
2022-11-24T00:27:59.861Z,7.60
2022-11-24T00:28:32.511Z,7.60
2022-11-24T00:29:07.484Z,7.60
2022-11-24T00:29:39.259Z,7.60
2022-11-24T00:30:11.985Z,7.60
2022-11-24T00:30:43.915Z,7.60
2022-11-24T00:31:19.603Z,7.60
2022-11-24T00:31:52.824Z,7.60
2022-11-24T00:32:24.621Z,7.60
2022-11-24T00:32:57.347Z,7.60
2022-11-24T00:33:29.262Z,7.60
2022-11-24T00:34:04.639Z,7.60
2022-11-24T00:34:36.516Z,7.60
2022-11-24T00:35:08.941Z,7.60
2022-11-24T00:35:40.737Z,7.60
2022-11-24T00:36:13.624Z,7.60
2022-11-24T00:36:45.381Z,7.60
2022-11-24T00:37:17.174Z,7.60
2022-11-24T00:37:49.951Z,7.60
2022-11-24T00:38:21.728Z,7.60
2022-11-24T00:38:54.788Z,7.60
2022-11-24T00:39:27.801Z,7.60
2022-11-24T00:39:59.576Z,7.70
2022-11-24T00:40:34.985Z,7.70
2022-11-24T00:41:08.276Z,7.70
2022-11-24T00:41:40.591Z,7.70
2022-11-24T00:42:14.205Z,7.70
2022-11-24T00:42:45.960Z,7.80
2022-11-24T00:43:17.785Z,7.80
2022-11-24T00:43:49.776Z,8.00
2022-11-24T00:44:22.513Z,7.70
2022-11-24T00:44:54.263Z,7.70
2022-11-24T00:45:26.028Z,7.70
2022-11-24T00:45:58.928Z,7.70
2022-11-24T00:46:30.938Z,7.70
2022-11-24T00:47:04.209Z,7.70
2022-11-24T00:47:37.033Z,7.70
2022-11-24T00:48:09.300Z,7.70
2022-11-24T00:48:41.228Z,7.70
2022-11-24T00:49:14.028Z,7.70
2022-11-24T00:49:45.798Z,7.70
2022-11-24T00:50:17.866Z,7.70
2022-11-24T00:50:56.619Z,7.70
2022-11-24T00:51:30.680Z,7.70
2022-11-24T00:52:02.583Z,7.70
2022-11-24T00:52:34.370Z,7.70
2022-11-24T00:53:07.236Z,7.70
2022-11-24T00:53:39.420Z,7.70
2022-11-24T00:54:12.253Z,7.70
2022-11-24T00:54:44.042Z,7.70
2022-11-24T00:55:15.947Z,7.70
2022-11-24T00:55:50.360Z,7.70
2022-11-24T00:56:22.677Z,7.70
2022-11-24T00:56:55.420Z,7.70
2022-11-24T00:57:27.206Z,7.70
2022-11-24T00:57:58.961Z,7.70
2022-11-24T00:58:32.500Z,7.70
2022-11-24T00:59:04.431Z,7.70
2022-11-24T00:59:36.200Z,7.70
2022-11-24T01:00:10.096Z,7.70
2022-11-24T01:00:41.918Z,7.70
2022-11-24T01:01:16.009Z,7.70
2022-11-24T01:01:48.827Z,7.70
2022-11-24T01:02:22.032Z,7.70
2022-11-24T01:02:53.919Z,7.80
2022-11-24T01:03:26.748Z,7.80
2022-11-24T01:04:01.257Z,7.80
2022-11-24T01:04:35.178Z,7.80
2022-11-24T01:05:07.924Z,7.80
2022-11-24T01:05:40.473Z,7.80
2022-11-24T01:06:15.103Z,7.80
2022-11-24T01:06:46.923Z,7.80
2022-11-24T01:07:18.747Z,7.70
2022-11-24T01:07:51.606Z,7.80
2022-11-24T01:08:23.452Z,7.70
2022-11-24T01:08:57.493Z,7.70
2022-11-24T01:09:30.212Z,7.70
2022-11-24T01:10:02.020Z,7.70
2022-11-24T01:10:33.825Z,7.70
2022-11-24T01:11:14.607Z,7.70
2022-11-24T01:12:01.227Z,7.80
2022-11-24T01:12:34.251Z,7.70
2022-11-24T01:13:07.009Z,7.70
2022-11-24T01:13:39.882Z,7.70
2022-11-24T01:14:11.654Z,7.80
2022-11-24T01:14:44.436Z,7.70
2022-11-24T01:15:16.339Z,7.80
2022-11-24T01:15:48.153Z,7.70
2022-11-24T01:16:23.447Z,7.70
2022-11-24T01:16:55.533Z,7.70
2022-11-24T01:17:28.657Z,7.70
2022-11-24T01:18:01.396Z,7.70
2022-11-24T01:18:33.321Z,7.70
2022-11-24T01:19:05.116Z,7.70
2022-11-24T01:19:37.856Z,7.70
2022-11-24T01:20:10.588Z,7.70
2022-11-24T01:20:42.363Z,7.70
2022-11-24T01:21:15.721Z,7.70
2022-11-24T01:21:47.795Z,7.80
2022-11-24T01:22:19.607Z,7.70
2022-11-24T01:22:51.425Z,7.80
2022-11-24T01:23:24.187Z,7.70
2022-11-24T01:23:55.975Z,7.70
2022-11-24T01:24:27.758Z,7.70
2022-11-24T01:25:00.488Z,7.70
2022-11-24T01:25:32.265Z,7.70
2022-11-24T01:26:05.632Z,7.70
2022-11-24T01:26:39.000Z,7.60
2022-11-24T01:27:10.770Z,7.60
2022-11-24T01:27:42.591Z,7.60
2022-11-24T01:28:15.521Z,7.60
2022-11-24T01:28:48.038Z,7.60
2022-11-24T01:29:19.984Z,7.60
2022-11-24T01:29:52.741Z,7.60
2022-11-24T01:30:24.507Z,7.60
2022-11-24T01:30:58.913Z,7.60
2022-11-24T01:31:30.857Z,7.60
2022-11-24T01:32:03.652Z,7.60
2022-11-24T01:32:37.259Z,7.60
2022-11-24T01:33:09.065Z,7.60
2022-11-24T01:33:41.830Z,7.60
2022-11-24T01:34:13.664Z,7.60
2022-11-24T01:34:45.479Z,7.60
2022-11-24T01:35:18.398Z,7.60
2022-11-24T01:35:50.190Z,7.60
2022-11-24T01:36:22.655Z,7.60
2022-11-24T01:36:55.445Z,7.60
2022-11-24T01:37:27.202Z,7.60
2022-11-24T01:37:59.129Z,7.60
2022-11-24T01:38:31.304Z,7.60
2022-11-24T01:39:04.159Z,7.60
2022-11-24T01:39:35.930Z,7.60
2022-11-24T01:40:09.406Z,7.60
2022-11-24T01:40:42.154Z,7.60
2022-11-24T01:41:16.019Z,7.60
2022-11-24T01:41:47.827Z,7.60
2022-11-24T01:42:20.598Z,7.70
2022-11-24T01:42:53.131Z,7.70
2022-11-24T01:43:24.912Z,7.60
2022-11-24T01:43:58.503Z,7.60
2022-11-24T01:44:31.588Z,7.60
2022-11-24T01:45:27.067Z,7.60
2022-11-24T01:46:05.421Z,7.70
2022-11-24T01:46:41.856Z,7.60
2022-11-24T01:47:31.804Z,7.60
2022-11-24T01:48:09.331Z,7.60
2022-11-24T01:48:46.554Z,7.70
2022-11-24T01:49:21.970Z,7.70
2022-11-24T01:49:57.726Z,7.70
2022-11-24T01:50:29.528Z,7.80
2022-11-24T01:51:08.285Z,7.70
2022-11-24T01:51:47.316Z,7.70
2022-11-24T01:52:22.662Z,7.70
2022-11-24T01:52:56.280Z,7.70
2022-11-24T01:53:28.093Z,7.70
2022-11-24T01:54:05.904Z,7.70
2022-11-24T01:54:41.732Z,7.70
2022-11-24T01:55:18.224Z,7.70
2022-11-24T01:55:53.059Z,7.70
2022-11-24T01:56:26.664Z,7.70
2022-11-24T01:57:05.017Z,7.60
2022-11-24T01:57:45.062Z,7.70
2022-11-24T01:58:20.481Z,7.70
2022-11-24T01:58:56.487Z,7.70
2022-11-24T01:59:28.748Z,7.70
2022-11-24T02:00:04.742Z,7.70
2022-11-24T02:00:38.848Z,7.70
2022-11-24T02:01:11.175Z,7.70
2022-11-24T02:01:44.232Z,7.70
2022-11-24T02:02:16.807Z,7.70
2022-11-24T02:02:48.750Z,7.60
2022-11-24T02:03:36.265Z,7.60
2022-11-24T02:04:12.797Z,7.60
2022-11-24T02:04:45.694Z,7.60
2022-11-24T02:05:22.647Z,7.60
2022-11-24T02:05:59.729Z,7.60
2022-11-24T02:06:34.981Z,7.60
2022-11-24T02:07:09.364Z,7.60
2022-11-24T02:07:41.319Z,7.60
2022-11-24T02:08:20.744Z,7.60
2022-11-24T02:08:58.982Z,7.60
2022-11-24T02:09:35.960Z,7.60
2022-11-24T02:10:10.702Z,7.60
2022-11-24T02:10:45.238Z,7.60
2022-11-24T02:11:18.389Z,7.60
2022-11-24T02:11:50.503Z,7.60
2022-11-24T02:12:23.607Z,7.60
2022-11-24T02:12:57.765Z,7.60
2022-11-24T02:13:29.954Z,7.60
2022-11-24T02:14:02.991Z,7.60
2022-11-24T02:14:36.332Z,7.60
2022-11-24T02:15:09.822Z,7.60
2022-11-24T02:15:42.808Z,7.60
2022-11-24T02:16:14.755Z,7.60
2022-11-24T02:16:50.232Z,7.60
2022-11-24T02:17:23.720Z,7.60
2022-11-24T02:17:55.491Z,7.60
2022-11-24T02:18:28.911Z,7.60
2022-11-24T02:19:01.914Z,7.60
2022-11-24T02:19:43.038Z,7.60
2022-11-24T02:20:16.946Z,7.60
2022-11-24T02:20:48.912Z,7.60
2022-11-24T02:21:21.697Z,7.60
2022-11-24T02:21:53.491Z,7.60
2022-11-24T02:22:35.218Z,7.60
2022-11-24T02:23:19.935Z,7.60
2022-11-24T02:24:01.480Z,7.60
2022-11-24T02:24:38.580Z,7.60
2022-11-24T02:25:18.103Z,7.60
2022-11-24T02:26:03.931Z,7.60
2022-11-24T02:26:45.575Z,7.60
2022-11-24T02:27:19.185Z,7.60
2022-11-24T02:27:54.030Z,7.50
2022-11-24T02:28:29.247Z,7.60
2022-11-24T02:29:03.072Z,7.50
2022-11-24T02:29:38.072Z,7.50
2022-11-24T02:30:10.526Z,7.50
2022-11-24T02:30:43.618Z,7.50
2022-11-24T02:31:15.603Z,7.50
2022-11-24T02:31:52.443Z,7.50
2022-11-24T02:32:25.288Z,7.50
2022-11-24T02:32:57.197Z,7.50
2022-11-24T02:33:29.892Z,7.50
2022-11-24T02:34:02.704Z,7.50
2022-11-24T02:34:35.133Z,7.50
2022-11-24T02:35:08.970Z,7.40
2022-11-24T02:35:41.996Z,7.40
2022-11-24T02:36:13.804Z,7.40
2022-11-24T02:36:45.955Z,7.40
2022-11-24T02:37:18.722Z,7.40
2022-11-24T02:37:50.485Z,7.40
2022-11-24T02:38:30.268Z,7.40
2022-11-24T02:39:03.009Z,7.40
2022-11-24T02:39:34.930Z,7.40
2022-11-24T02:40:08.260Z,7.40
2022-11-24T02:40:44.257Z,7.40
2022-11-24T02:41:19.896Z,7.30
2022-11-24T02:41:58.090Z,7.40
2022-11-24T02:42:40.473Z,7.40
2022-11-24T02:43:16.047Z,7.40
2022-11-24T02:43:54.001Z,7.40
2022-11-24T02:44:31.547Z,7.40
2022-11-24T02:45:04.333Z,7.30
2022-11-24T02:45:36.112Z,7.30
2022-11-24T02:46:09.269Z,7.40
2022-11-24T02:46:41.047Z,7.30
2022-11-24T02:47:13.765Z,7.40
2022-11-24T02:47:46.907Z,7.40
2022-11-24T02:48:19.035Z,7.40
2022-11-24T02:48:50.987Z,7.40
2022-11-24T02:49:24.343Z,7.40
2022-11-24T02:49:56.103Z,7.40
2022-11-24T02:50:27.950Z,7.40
2022-11-24T02:50:59.747Z,7.40
2022-11-24T02:51:34.310Z,7.40
2022-11-24T02:52:06.809Z,7.40
2022-11-24T02:52:38.612Z,7.40
2022-11-24T02:53:11.403Z,7.40
2022-11-24T02:53:43.679Z,7.40
2022-11-24T02:54:15.578Z,7.50
2022-11-24T02:54:48.369Z,7.50
2022-11-24T02:55:20.254Z,7.40
2022-11-24T02:55:53.035Z,7.40
2022-11-24T02:56:26.240Z,7.40
2022-11-24T02:56:59.737Z,7.50
2022-11-24T02:57:32.538Z,7.40
2022-11-24T02:58:04.331Z,7.40
2022-11-24T02:58:36.180Z,7.50
2022-11-24T02:59:08.902Z,7.40
2022-11-24T02:59:40.692Z,7.50
2022-11-24T03:00:13.464Z,7.50
2022-11-24T03:00:46.227Z,7.50
2022-11-24T03:01:18.189Z,7.50
2022-11-24T03:01:50.245Z,7.50
2022-11-24T03:02:23.243Z,7.50
2022-11-24T03:02:55.127Z,7.50
2022-11-24T03:03:27.511Z,7.50
2022-11-24T03:04:00.280Z,7.50
2022-11-24T03:04:32.501Z,7.50
2022-11-24T03:05:05.192Z,7.50
2022-11-24T03:05:37.969Z,7.50
2022-11-24T03:06:09.747Z,7.50
2022-11-24T03:06:43.180Z,7.50
2022-11-24T03:07:16.046Z,7.50
2022-11-24T03:07:47.975Z,7.50
2022-11-24T03:08:20.281Z,7.50
2022-11-24T03:08:53.034Z,7.50
2022-11-24T03:09:24.882Z,7.60
2022-11-24T03:09:56.672Z,7.50
2022-11-24T03:10:29.460Z,7.60
2022-11-24T03:11:01.757Z,7.60
2022-11-24T03:11:33.548Z,7.60
2022-11-24T03:12:08.062Z,7.60
2022-11-24T03:12:39.836Z,7.60
2022-11-24T03:13:11.971Z,7.60
2022-11-24T03:13:44.737Z,7.60
2022-11-24T03:14:16.508Z,7.60
2022-11-24T03:14:48.280Z,7.60
2022-11-24T03:15:21.008Z,7.60
2022-11-24T03:15:52.782Z,7.60
2022-11-24T03:16:24.666Z,7.60
2022-11-24T03:16:57.479Z,7.60
2022-11-24T03:17:29.345Z,7.60
2022-11-24T03:18:01.206Z,7.60
2022-11-24T03:18:33.936Z,7.60
2022-11-24T03:19:05.724Z,7.60
2022-11-24T03:19:37.490Z,7.60
2022-11-24T03:20:11.667Z,7.60
2022-11-24T03:20:44.118Z,7.60
2022-11-24T03:21:15.953Z,7.60
2022-11-24T03:21:47.732Z,7.60
2022-11-24T03:22:20.512Z,7.60
2022-11-24T03:22:55.124Z,7.60
2022-11-24T03:23:27.039Z,7.60
2022-11-24T03:24:00.155Z,7.60
2022-11-24T03:24:32.335Z,7.60
2022-11-24T03:25:04.691Z,7.60
2022-11-24T03:25:37.492Z,7.70
2022-11-24T03:26:09.827Z,7.70
2022-11-24T03:26:42.000Z,7.70
2022-11-24T03:27:15.237Z,7.70
2022-11-24T03:27:48.064Z,7.60
2022-11-24T03:28:19.826Z,7.60
2022-11-24T03:28:54.064Z,7.60
2022-11-24T03:29:25.871Z,7.60
2022-11-24T03:29:58.644Z,7.60
2022-11-24T03:30:30.422Z,7.60
2022-11-24T03:31:02.272Z,7.60
2022-11-24T03:31:35.266Z,7.60
2022-11-24T03:32:07.168Z,7.60
2022-11-24T03:32:38.981Z,7.50
2022-11-24T03:33:11.731Z,7.60
2022-11-24T03:33:43.508Z,7.60
2022-11-24T03:34:15.287Z,7.60
2022-11-24T03:34:48.238Z,7.60
2022-11-24T03:35:20.272Z,7.60
2022-11-24T03:35:52.043Z,7.50
2022-11-24T03:36:24.778Z,7.50
2022-11-24T03:36:56.711Z,7.50
2022-11-24T03:37:28.621Z,7.50
2022-11-24T03:38:01.397Z,7.50
2022-11-24T03:38:33.408Z,7.50
2022-11-24T03:39:05.252Z,7.50
2022-11-24T03:39:38.057Z,7.50
2022-11-24T03:40:11.364Z,7.50
2022-11-24T03:40:43.326Z,7.60
2022-11-24T03:41:16.132Z,7.60
2022-11-24T03:41:48.011Z,7.60
2022-11-24T03:42:21.118Z,7.60
2022-11-24T03:42:53.880Z,7.60
2022-11-24T03:43:25.811Z,7.60
2022-11-24T03:43:57.634Z,7.60
2022-11-24T03:44:30.539Z,7.60
2022-11-24T03:45:29.946Z,7.60
2022-11-24T03:45:55.736Z,7.60
2022-11-24T03:46:27.583Z,7.60
2022-11-24T03:46:59.439Z,7.60
2022-11-24T03:47:32.165Z,7.60
2022-11-24T03:48:04.666Z,7.60
2022-11-24T03:48:36.561Z,7.60
2022-11-24T03:49:09.856Z,7.60
2022-11-24T03:49:42.220Z,7.60
2022-11-24T03:50:14.104Z,7.60
2022-11-24T03:50:53.922Z,7.60
2022-11-24T03:51:25.726Z,7.60
2022-11-24T03:51:57.582Z,7.60
2022-11-24T03:52:30.325Z,7.60
2022-11-24T03:53:02.092Z,7.60
2022-11-24T03:53:34.215Z,7.60
2022-11-24T03:54:07.380Z,7.60
2022-11-24T03:54:39.154Z,7.60
2022-11-24T03:55:10.960Z,7.50
2022-11-24T03:55:44.562Z,7.50
2022-11-24T03:56:16.460Z,7.60
2022-11-24T03:56:48.256Z,7.60
2022-11-24T03:57:22.340Z,7.50
2022-11-24T03:57:54.089Z,7.50
2022-11-24T03:58:26.049Z,7.50
2022-11-24T03:58:58.910Z,7.50
2022-11-24T03:59:30.782Z,7.50
2022-11-24T04:00:04.748Z,7.50
2022-11-24T04:00:37.493Z,7.50
2022-11-24T04:01:09.361Z,7.50
2022-11-24T04:01:41.240Z,7.50
2022-11-24T04:02:14.132Z,7.50
2022-11-24T04:02:46.036Z,7.50
2022-11-24T04:03:17.915Z,7.60
2022-11-24T04:03:50.660Z,7.60
2022-11-24T04:04:22.427Z,7.60
2022-11-24T04:04:54.221Z,7.60
2022-11-24T04:05:26.987Z,7.60
2022-11-24T04:05:58.819Z,7.60
2022-11-24T04:06:30.628Z,7.60
2022-11-24T04:07:03.490Z,7.60
2022-11-24T04:07:35.330Z,7.60
2022-11-24T04:08:07.242Z,7.60
2022-11-24T04:08:40.013Z,7.60
2022-11-24T04:09:11.811Z,7.70
2022-11-24T04:09:43.822Z,7.70
2022-11-24T04:10:16.646Z,7.70
2022-11-24T04:10:50.832Z,7.60
2022-11-24T04:11:41.136Z,7.60
2022-11-24T04:12:31.749Z,7.60
2022-11-24T04:13:06.537Z,7.60
2022-11-24T04:13:38.321Z,7.60
2022-11-24T04:14:13.623Z,7.60
2022-11-24T04:14:45.810Z,7.60
2022-11-24T04:15:20.070Z,7.60
2022-11-24T04:15:52.284Z,7.60
2022-11-24T04:16:24.208Z,7.60
2022-11-24T04:16:57.105Z,7.60
2022-11-24T04:17:28.916Z,7.60
2022-11-24T04:18:00.772Z,7.50
2022-11-24T04:18:33.784Z,7.50
2022-11-24T04:19:06.420Z,7.50
2022-11-24T04:19:38.260Z,7.50
2022-11-24T04:20:12.299Z,7.50
2022-11-24T04:20:44.188Z,7.50
2022-11-24T04:21:16.032Z,7.60
2022-11-24T04:21:48.841Z,7.60
2022-11-24T04:22:20.626Z,7.60
2022-11-24T04:22:52.461Z,7.60
2022-11-24T04:23:25.324Z,7.60
2022-11-24T04:23:57.202Z,7.60
2022-11-24T04:24:29.029Z,7.60
2022-11-24T04:25:01.769Z,7.60
2022-11-24T04:25:33.883Z,7.60
2022-11-24T04:26:05.882Z,7.60
2022-11-24T04:26:38.616Z,7.60
2022-11-24T04:27:10.417Z,7.60
2022-11-24T04:27:42.213Z,7.60
2022-11-24T04:28:16.344Z,7.60
2022-11-24T04:28:48.138Z,7.60
2022-11-24T04:29:19.978Z,7.60
2022-11-24T04:29:51.819Z,7.60
2022-11-24T04:30:26.004Z,7.60
2022-11-24T04:31:02.138Z,7.60
2022-11-24T04:31:34.032Z,7.60
2022-11-24T04:32:07.174Z,7.70
2022-11-24T04:32:39.036Z,7.70
2022-11-24T04:33:12.284Z,7.60
2022-11-24T04:33:45.315Z,7.70
2022-11-24T04:34:17.244Z,7.70
2022-11-24T04:34:50.103Z,7.70
2022-11-24T04:35:22.001Z,7.70
2022-11-24T04:35:54.100Z,7.70
2022-11-24T04:36:26.897Z,7.70
2022-11-24T04:36:58.751Z,7.70
2022-11-24T04:37:30.592Z,7.70
2022-11-24T04:38:03.983Z,7.70
2022-11-24T04:39:22.746Z,7.70
2022-11-24T04:39:29.043Z,7.70
2022-11-24T04:40:00.903Z,7.60
2022-11-24T04:40:32.708Z,7.70
2022-11-24T04:41:06.498Z,7.70
2022-11-24T04:41:38.303Z,7.70
2022-11-24T04:42:10.294Z,7.70
2022-11-24T04:42:43.320Z,7.70
2022-11-24T04:43:18.609Z,7.70
2022-11-24T04:43:50.428Z,7.70
2022-11-24T04:44:23.287Z,7.70
2022-11-24T04:44:55.528Z,7.80
2022-11-24T04:45:27.385Z,7.80
2022-11-24T04:46:01.149Z,7.80
2022-11-24T04:46:33.049Z,7.80
2022-11-24T04:47:05.304Z,7.80
2022-11-24T04:47:38.176Z,7.80
2022-11-24T04:48:09.984Z,7.70
2022-11-24T04:48:42.008Z,7.70
2022-11-24T04:49:14.744Z,7.70
2022-11-24T04:49:47.184Z,7.70
2022-11-24T04:50:19.027Z,7.80
2022-11-24T04:50:51.939Z,7.80
2022-11-24T04:51:23.770Z,7.80
2022-11-24T04:51:55.599Z,7.80
2022-11-24T04:52:28.616Z,7.80
2022-11-24T04:53:00.384Z,7.80
2022-11-24T04:53:32.183Z,7.80
2022-11-24T04:54:05.154Z,7.80
2022-11-24T04:54:37.271Z,7.80
2022-11-24T04:55:09.478Z,7.80
2022-11-24T04:55:42.332Z,7.80
2022-11-24T04:56:14.103Z,7.80
2022-11-24T04:56:49.871Z,7.80
2022-11-24T04:57:23.977Z,7.80
2022-11-24T04:57:56.768Z,7.80
2022-11-24T04:58:29.931Z,7.80
2022-11-24T04:59:07.803Z,7.80
2022-11-24T04:59:41.079Z,7.80
2022-11-24T05:00:14.092Z,7.80
2022-11-24T05:00:45.919Z,7.70
2022-11-24T05:01:18.687Z,7.70
2022-11-24T05:01:50.577Z,7.70
2022-11-24T05:02:23.191Z,7.80
2022-11-24T05:02:56.052Z,7.80
2022-11-24T05:03:27.840Z,7.80
2022-11-24T05:03:59.687Z,7.80
2022-11-24T05:04:32.850Z,7.80
2022-11-24T05:05:06.071Z,7.90
2022-11-24T05:05:37.868Z,7.80
2022-11-24T05:06:10.627Z,7.90
2022-11-24T05:06:42.918Z,7.80
2022-11-24T05:07:18.801Z,7.90
2022-11-24T05:07:52.244Z,7.80
2022-11-24T05:08:24.060Z,7.90
2022-11-24T05:08:55.868Z,7.90
2022-11-24T05:09:41.990Z,7.90
2022-11-24T05:10:39.977Z,7.90
2022-11-24T05:11:11.758Z,7.90
2022-11-24T05:11:43.931Z,7.90
2022-11-24T05:12:15.774Z,7.90
2022-11-24T05:12:55.608Z,7.90
2022-11-24T05:13:28.733Z,7.90
2022-11-24T05:14:01.861Z,7.90
2022-11-24T05:14:34.067Z,7.90
2022-11-24T05:15:07.421Z,7.90
2022-11-24T05:15:41.963Z,7.90
2022-11-24T05:16:13.836Z,7.90
2022-11-24T05:16:45.855Z,7.90
2022-11-24T05:17:18.780Z,7.90
2022-11-24T05:17:50.583Z,7.90
2022-11-24T05:18:22.376Z,7.90
2022-11-24T05:18:55.166Z,7.80
2022-11-24T05:19:32.251Z,7.90
2022-11-24T05:20:05.777Z,7.80
2022-11-24T05:20:38.587Z,7.80
2022-11-24T05:21:10.407Z,7.80
2022-11-24T05:21:42.231Z,7.80
2022-11-24T05:22:15.013Z,7.80
2022-11-24T05:22:46.911Z,7.80
2022-11-24T05:23:18.738Z,7.80
2022-11-24T05:23:51.524Z,7.80
2022-11-24T05:24:23.285Z,7.80
2022-11-24T05:24:55.220Z,7.90
2022-11-24T05:25:27.988Z,7.80
2022-11-24T05:26:00.716Z,7.80
2022-11-24T05:26:35.363Z,7.80
2022-11-24T05:27:07.138Z,7.90
2022-11-24T05:27:38.952Z,7.80
2022-11-24T05:28:11.723Z,7.80
2022-11-24T05:28:44.935Z,7.80
2022-11-24T05:29:16.765Z,7.80
2022-11-24T05:29:49.649Z,7.90
2022-11-24T05:30:21.431Z,7.80
2022-11-24T05:30:54.621Z,7.90
2022-11-24T05:31:26.574Z,7.80
2022-11-24T05:31:59.358Z,7.90
2022-11-24T05:32:31.116Z,7.90
2022-11-24T05:33:06.030Z,7.90
2022-11-24T05:33:38.834Z,7.90
2022-11-24T05:34:10.923Z,7.80
2022-11-24T05:34:43.194Z,7.80
2022-11-24T05:35:16.914Z,7.80
2022-11-24T05:35:49.640Z,7.80
2022-11-24T05:36:39.870Z,7.80
2022-11-24T05:37:12.743Z,7.80
2022-11-24T05:37:44.619Z,7.80
2022-11-24T05:38:18.016Z,7.80
2022-11-24T05:38:49.802Z,7.80
2022-11-24T05:39:21.801Z,7.70
2022-11-24T05:39:54.702Z,7.70
2022-11-24T05:40:26.570Z,7.70
2022-11-24T05:41:00.981Z,7.80
2022-11-24T05:41:33.770Z,7.80
2022-11-24T05:42:22.352Z,7.80
2022-11-24T05:42:54.219Z,7.80
2022-11-24T05:43:26.993Z,7.80
2022-11-24T05:44:00.139Z,7.70
2022-11-24T05:44:32.295Z,7.80
2022-11-24T05:45:06.057Z,7.80
2022-11-24T05:45:37.921Z,7.80
2022-11-24T05:46:09.752Z,7.80
2022-11-24T05:46:42.635Z,7.80
2022-11-24T05:47:14.521Z,7.80
2022-11-24T05:47:47.533Z,7.80
2022-11-24T05:48:20.343Z,7.80
2022-11-24T05:48:52.127Z,7.80
2022-11-24T05:49:23.900Z,7.80
2022-11-24T05:49:55.727Z,7.80
2022-11-24T05:50:28.496Z,7.80
2022-11-24T05:51:01.600Z,7.80
2022-11-24T05:51:35.942Z,7.80
2022-11-24T05:52:08.790Z,7.80
2022-11-24T05:52:41.090Z,7.80
2022-11-24T05:53:13.714Z,7.80
2022-11-24T05:53:46.722Z,7.80
2022-11-24T05:54:18.509Z,7.80
2022-11-24T05:54:50.540Z,7.80
2022-11-24T05:55:23.324Z,7.80
2022-11-24T05:55:55.249Z,7.90
2022-11-24T05:56:27.067Z,7.90
2022-11-24T05:56:59.823Z,7.80
2022-11-24T05:57:31.763Z,7.80
2022-11-24T05:58:05.610Z,7.80
2022-11-24T05:58:38.388Z,7.80
2022-11-24T05:59:11.568Z,7.80
2022-11-24T05:59:43.666Z,7.90
2022-11-24T06:00:19.884Z,7.90
2022-11-24T06:00:51.678Z,7.90
2022-11-24T06:01:23.554Z,7.90
2022-11-24T06:01:55.556Z,7.90
2022-11-24T06:02:28.791Z,7.90
2022-11-24T06:03:01.692Z,7.90
2022-11-24T06:03:35.080Z,7.90
2022-11-24T06:04:06.956Z,7.90
2022-11-24T06:04:38.835Z,7.90
2022-11-24T06:05:11.826Z,8.00
2022-11-24T06:05:47.015Z,7.90
2022-11-24T06:06:19.890Z,8.00
2022-11-24T06:06:52.189Z,8.00
2022-11-24T06:07:24.828Z,7.90
2022-11-24T06:07:59.516Z,8.10
2022-11-24T06:08:31.695Z,7.90
2022-11-24T06:09:04.824Z,7.90
2022-11-24T06:09:38.265Z,7.90
2022-11-24T06:10:10.200Z,7.90
2022-11-24T06:10:42.202Z,7.90
2022-11-24T06:11:20.969Z,7.90
2022-11-24T06:11:52.897Z,7.90
2022-11-24T06:12:24.805Z,7.90
2022-11-24T06:12:58.293Z,7.90
2022-11-24T06:13:30.252Z,7.90
2022-11-24T06:14:05.719Z,7.90
2022-11-24T06:14:42.894Z,7.90
2022-11-24T06:15:14.794Z,8.00
2022-11-24T06:15:47.623Z,8.00
2022-11-24T06:16:19.475Z,8.00
2022-11-24T06:16:51.489Z,7.90
2022-11-24T06:17:24.624Z,7.90
2022-11-24T06:17:57.070Z,7.90
2022-11-24T06:18:30.082Z,8.00
2022-11-24T06:19:02.075Z,8.00
2022-11-24T06:19:37.361Z,8.00
2022-11-24T06:20:13.123Z,8.00
2022-11-24T06:21:02.830Z,8.00
2022-11-24T06:21:36.754Z,8.00
2022-11-24T06:22:09.622Z,8.00
2022-11-24T06:22:41.506Z,8.00
2022-11-24T06:23:14.305Z,8.00
2022-11-24T06:23:48.417Z,8.00
2022-11-24T06:24:20.264Z,8.00
2022-11-24T06:24:53.104Z,8.00
2022-11-24T06:25:24.940Z,8.10
2022-11-24T06:25:58.342Z,8.10
2022-11-24T06:26:31.089Z,8.10
2022-11-24T06:27:03.083Z,8.00
2022-11-24T06:27:34.856Z,8.10
2022-11-24T06:28:07.838Z,8.10
2022-11-24T06:28:39.668Z,8.20
2022-11-24T06:29:11.529Z,8.10
2022-11-24T06:29:44.776Z,8.10
2022-11-24T06:30:17.930Z,8.10
2022-11-24T06:30:49.717Z,8.10
2022-11-24T06:31:21.647Z,8.10
2022-11-24T06:31:54.560Z,8.20
2022-11-24T06:32:26.384Z,8.10
2022-11-24T06:32:58.199Z,8.20
2022-11-24T06:33:34.507Z,8.10
2022-11-24T06:34:07.265Z,8.10
2022-11-24T06:34:39.259Z,8.10
2022-11-24T06:35:13.066Z,8.10
2022-11-24T06:35:44.836Z,8.10
2022-11-24T06:36:16.736Z,8.10
2022-11-24T06:36:49.504Z,8.10
2022-11-24T06:37:21.471Z,8.10
2022-11-24T06:37:53.239Z,8.10
2022-11-24T06:38:26.297Z,8.10
2022-11-24T06:38:58.188Z,8.20
2022-11-24T06:39:31.039Z,8.20
2022-11-24T06:40:02.923Z,8.20
2022-11-24T06:40:35.694Z,8.20
2022-11-24T06:41:09.961Z,8.20
2022-11-24T06:41:42.706Z,8.20
2022-11-24T06:42:18.700Z,8.20
2022-11-24T06:42:52.839Z,8.20
2022-11-24T06:43:26.801Z,8.10
2022-11-24T06:43:59.813Z,8.10
2022-11-24T06:44:31.831Z,8.30
2022-11-24T06:45:09.333Z,8.10
2022-11-24T06:45:41.605Z,8.10
2022-11-24T06:46:13.696Z,8.10
2022-11-24T06:46:46.821Z,8.20
2022-11-24T06:47:18.616Z,8.10
2022-11-24T06:47:53.460Z,8.10
2022-11-24T06:48:27.284Z,8.10
2022-11-24T06:48:59.894Z,8.20
2022-11-24T06:49:32.667Z,8.20
2022-11-24T06:50:05.201Z,8.20
2022-11-24T06:50:37.417Z,8.20
2022-11-24T06:51:13.817Z,8.20
2022-11-24T06:51:45.671Z,8.20
2022-11-24T06:52:18.425Z,8.20
2022-11-24T06:52:50.276Z,8.20
2022-11-24T06:53:22.107Z,8.20
2022-11-24T06:53:54.031Z,8.20
2022-11-24T06:54:26.820Z,8.20
2022-11-24T06:54:58.604Z,8.20
2022-11-24T06:55:30.391Z,8.20
2022-11-24T06:56:03.536Z,8.20
2022-11-24T06:56:36.062Z,8.30
2022-11-24T06:57:08.917Z,8.20
2022-11-24T06:57:40.721Z,8.10
2022-11-24T06:58:12.942Z,8.10
2022-11-24T06:58:47.432Z,8.10
2022-11-24T06:59:20.927Z,8.20
2022-11-24T06:59:53.972Z,8.20
2022-11-24T07:00:29.210Z,8.20
2022-11-24T07:01:01.246Z,8.20
2022-11-24T07:01:34.176Z,8.10
2022-11-24T07:02:06.220Z,8.10
2022-11-24T07:02:45.445Z,8.10
2022-11-24T07:03:19.411Z,8.20
2022-11-24T07:03:53.216Z,8.10
2022-11-24T07:04:25.000Z,8.10
2022-11-24T07:04:56.797Z,8.10
2022-11-24T07:05:29.597Z,8.10
2022-11-24T07:06:01.477Z,8.10
2022-11-24T07:06:34.272Z,8.10
2022-11-24T07:07:06.465Z,8.10
2022-11-24T07:07:38.714Z,8.10
2022-11-24T07:08:17.399Z,8.10
2022-11-24T07:08:50.339Z,8.10
2022-11-24T07:09:23.080Z,8.10
2022-11-24T07:09:54.878Z,8.20
2022-11-24T07:10:26.683Z,8.20
2022-11-24T07:11:06.074Z,8.20
2022-11-24T07:11:38.886Z,8.20
2022-11-24T07:12:11.700Z,8.20
2022-11-24T07:12:43.531Z,8.20
2022-11-24T07:13:16.319Z,8.20
2022-11-24T07:13:49.085Z,8.20
2022-11-24T07:14:20.944Z,8.20
2022-11-24T07:14:53.776Z,8.20
2022-11-24T07:15:28.205Z,8.20
2022-11-24T07:16:00.119Z,8.20
2022-11-24T07:16:33.528Z,8.20
2022-11-24T07:17:05.411Z,8.20
2022-11-24T07:17:37.845Z,8.20
2022-11-24T07:18:10.649Z,8.20
2022-11-24T07:18:42.831Z,8.20
2022-11-24T07:19:18.976Z,8.20
2022-11-24T07:19:53.461Z,8.20
2022-11-24T07:20:26.586Z,8.20
2022-11-24T07:20:58.397Z,8.20
2022-11-24T07:21:31.550Z,8.20
2022-11-24T07:22:03.378Z,8.20
2022-11-24T07:22:35.676Z,8.20
2022-11-24T07:23:08.479Z,8.20